createdAt,value
2022-11-17T00:01:21.658Z,8.54
2022-11-17T00:03:49.148Z,8.66
2022-11-17T00:06:16.839Z,8.70
2022-11-17T00:08:43.849Z,8.69
2022-11-17T00:11:10.278Z,8.59
2022-11-17T00:13:55.094Z,8.43
2022-11-17T00:16:22.403Z,8.56
2022-11-17T00:19:07.957Z,8.65
2022-11-17T00:21:34.930Z,8.73
2022-11-17T00:24:01.907Z,8.68
2022-11-17T00:26:30.973Z,8.54
2022-11-17T00:28:59.996Z,8.51
2022-11-17T00:31:47.378Z,8.61
2022-11-17T00:34:22.495Z,8.85
2022-11-17T00:36:53.898Z,8.85
2022-11-17T00:39:22.870Z,8.74
2022-11-17T00:41:49.999Z,8.82
2022-11-17T00:44:16.898Z,8.65
2022-11-17T00:46:43.362Z,8.49
2022-11-17T00:49:11.311Z,8.43
2022-11-17T00:51:38.018Z,8.58
2022-11-17T00:54:06.215Z,8.56
2022-11-17T00:56:33.640Z,8.44
2022-11-17T00:59:00.088Z,8.34
2022-11-17T01:01:26.875Z,8.29
2022-11-17T01:04:03.132Z,8.29
2022-11-17T01:06:40.948Z,8.47
2022-11-17T01:09:12.846Z,8.60
2022-11-17T01:11:39.485Z,8.54
2022-11-17T01:14:06.333Z,8.47
2022-11-17T01:16:33.695Z,8.36
2022-11-17T01:19:02.091Z,8.58
2022-11-17T01:21:30.952Z,8.43
2022-11-17T01:23:59.601Z,8.56
2022-11-17T01:26:32.861Z,8.40
2022-11-17T01:29:00.972Z,8.33
2022-11-17T01:31:32.972Z,8.32
2022-11-17T01:33:59.815Z,8.48
2022-11-17T01:36:30.520Z,8.37
2022-11-17T01:38:56.891Z,8.38
2022-11-17T01:41:26.192Z,8.27
2022-11-17T01:43:56.146Z,8.34
2022-11-17T01:46:25.424Z,8.39
2022-11-17T01:48:54.399Z,8.40
2022-11-17T01:51:21.803Z,8.40
2022-11-17T01:53:51.199Z,8.26
2022-11-17T01:56:25.352Z,8.28
2022-11-17T01:58:58.170Z,8.22
2022-11-17T02:01:24.708Z,8.32
2022-11-17T02:03:51.609Z,8.22
2022-11-17T02:06:31.226Z,8.22
2022-11-17T02:08:58.224Z,8.07
2022-11-17T02:11:25.904Z,8.06
2022-11-17T02:13:55.657Z,8.24
2022-11-17T02:16:22.029Z,8.37
2022-11-17T02:18:49.131Z,8.43
2022-11-17T02:21:55.049Z,8.63
2022-11-17T02:24:27.104Z,8.58
2022-11-17T02:27:21.321Z,8.39
2022-11-17T02:30:10.873Z,8.12
2022-11-17T02:33:02.436Z,8.25
2022-11-17T02:35:52.095Z,8.28
2022-11-17T02:39:00.308Z,8.39
2022-11-17T02:41:36.161Z,8.20
2022-11-17T02:44:41.104Z,8.32
2022-11-17T02:47:15.035Z,8.33
2022-11-17T02:49:47.252Z,8.31
2022-11-17T02:52:16.293Z,8.38
2022-11-17T02:54:42.829Z,8.55
2022-11-17T02:57:27.950Z,8.65
2022-11-17T02:59:55.125Z,8.61
2022-11-17T03:02:58.777Z,8.27
2022-11-17T03:05:47.468Z,8.21
2022-11-17T03:08:35.921Z,8.14
2022-11-17T03:11:05.066Z,7.92
2022-11-17T03:13:36.900Z,8.08
2022-11-17T03:16:32.704Z,8.33
2022-11-17T03:19:09.449Z,8.16
2022-11-17T03:21:45.148Z,8.13
2022-11-17T03:24:11.622Z,8.23
2022-11-17T03:26:42.436Z,8.26
2022-11-17T03:29:14.927Z,8.25
2022-11-17T03:31:45.853Z,8.24
2022-11-17T03:34:16.912Z,8.36
2022-11-17T03:36:48.514Z,8.18
2022-11-17T03:39:42.925Z,8.25
2022-11-17T03:42:22.771Z,7.98
2022-11-17T03:44:53.790Z,7.91
2022-11-17T03:47:22.581Z,7.79
2022-11-17T03:49:57.829Z,7.92
2022-11-17T03:52:25.188Z,7.96
2022-11-17T03:54:55.512Z,8.01
2022-11-17T03:57:34.012Z,7.89
2022-11-17T04:00:02.564Z,8.00
2022-11-17T04:02:29.222Z,8.12
2022-11-17T04:05:07.841Z,8.13
2022-11-17T04:07:43.325Z,8.08
2022-11-17T04:10:15.902Z,8.09
2022-11-17T04:13:04.539Z,8.16
2022-11-17T04:15:49.226Z,8.44
2022-11-17T04:18:16.449Z,8.52
2022-11-17T04:20:43.201Z,8.65
2022-11-17T04:23:13.949Z,8.31
2022-11-17T04:26:04.095Z,8.42
2022-11-17T04:28:37.785Z,8.33
2022-11-17T04:31:13.362Z,8.54
2022-11-17T04:33:48.144Z,8.07
2022-11-17T04:36:20.644Z,8.14
2022-11-17T04:38:52.518Z,8.21
2022-11-17T04:41:39.380Z,8.00
2022-11-17T04:44:07.970Z,8.15
2022-11-17T04:46:35.682Z,7.94
2022-11-17T04:49:02.843Z,8.07
2022-11-17T04:51:30.430Z,8.28
2022-11-17T04:53:57.262Z,8.26
2022-11-17T04:56:24.675Z,8.16
2022-11-17T04:58:51.907Z,8.23
2022-11-17T05:01:19.437Z,8.28
2022-11-17T05:03:57.146Z,8.37
2022-11-17T05:06:29.109Z,8.43
2022-11-17T05:08:56.611Z,8.35
2022-11-17T05:11:47.061Z,8.29
2022-11-17T05:14:16.344Z,8.29
2022-11-17T05:17:08.420Z,8.38
2022-11-17T05:19:38.847Z,8.41
2022-11-17T05:22:24.860Z,8.31
2022-11-17T05:24:52.400Z,8.37
2022-11-17T05:27:19.489Z,8.41
2022-11-17T05:29:46.112Z,8.38
2022-11-17T05:32:12.622Z,8.31
2022-11-17T05:34:39.031Z,8.22
2022-11-17T05:37:06.316Z,8.23
2022-11-17T05:39:32.744Z,8.36
2022-11-17T05:41:59.150Z,8.35
2022-11-17T05:44:25.774Z,8.29
2022-11-17T05:46:52.161Z,8.20
2022-11-17T05:49:18.735Z,8.31
2022-11-17T05:51:49.855Z,8.25
2022-11-17T05:54:18.856Z,8.26
2022-11-17T05:56:50.933Z,8.31
2022-11-17T05:59:28.912Z,8.29
2022-11-17T06:02:06.815Z,8.24
2022-11-17T06:04:34.386Z,8.27
2022-11-17T06:07:01.883Z,8.21
2022-11-17T06:09:32.810Z,8.30
2022-11-17T06:12:04.318Z,8.26
2022-11-17T06:14:32.468Z,8.28
2022-11-17T06:17:04.969Z,8.30
2022-11-17T06:19:37.136Z,8.40
2022-11-17T06:22:12.209Z,8.31
2022-11-17T06:24:44.638Z,8.22
2022-11-17T06:27:13.889Z,8.20
2022-11-17T06:29:44.220Z,8.18
2022-11-17T06:32:13.541Z,8.39
2022-11-17T06:34:40.128Z,8.34
2022-11-17T06:37:06.535Z,8.43
2022-11-17T06:39:33.043Z,8.37
2022-11-17T06:41:59.573Z,8.41
2022-11-17T06:44:26.039Z,8.50
2022-11-17T06:46:52.449Z,8.61
2022-11-17T06:49:18.873Z,8.41
2022-11-17T06:51:45.764Z,8.45
2022-11-17T06:54:14.717Z,8.29
2022-11-17T06:56:42.047Z,8.45
2022-11-17T06:59:08.726Z,8.50
2022-11-17T07:01:36.554Z,8.67
2022-11-17T07:04:03.269Z,8.76
2022-11-17T07:06:29.913Z,8.64
2022-11-17T07:08:56.378Z,8.41
2022-11-17T07:11:22.969Z,8.47
2022-11-17T07:13:49.452Z,8.45
2022-11-17T07:16:23.522Z,8.46
2022-11-17T07:18:50.505Z,8.47
2022-11-17T07:21:18.048Z,8.50
2022-11-17T07:23:47.502Z,8.69
2022-11-17T07:26:14.422Z,8.63
2022-11-17T07:28:41.199Z,8.70
2022-11-17T07:31:09.047Z,8.78
2022-11-17T07:33:36.025Z,8.63
2022-11-17T07:36:07.659Z,8.81
2022-11-17T07:38:36.026Z,8.83
2022-11-17T07:41:03.915Z,9.04
2022-11-17T07:43:30.932Z,9.26
2022-11-17T07:45:57.434Z,9.17
2022-11-17T07:48:24.058Z,9.31
2022-11-17T07:50:50.987Z,9.35
2022-11-17T07:53:17.820Z,9.31
2022-11-17T07:55:44.311Z,9.08
2022-11-17T07:58:11.395Z,8.94
2022-11-17T08:00:38.031Z,9.16
2022-11-17T08:03:05.438Z,9.02
2022-11-17T08:05:41.733Z,9.17
2022-11-17T08:08:09.950Z,9.21
2022-11-17T08:10:36.653Z,9.33
2022-11-17T08:13:03.331Z,9.49
2022-11-17T08:15:30.959Z,9.65
2022-11-17T08:17:59.797Z,9.24
2022-11-17T08:20:27.962Z,9.26
2022-11-17T08:22:55.150Z,9.49
2022-11-17T08:25:24.234Z,9.39
2022-11-17T08:27:54.089Z,9.36
2022-11-17T08:30:21.332Z,9.50
2022-11-17T08:32:50.135Z,9.46
2022-11-17T08:35:17.184Z,9.27
2022-11-17T08:37:43.740Z,9.57
2022-11-17T08:40:11.722Z,9.40
2022-11-17T08:42:38.755Z,9.51
2022-11-17T08:45:07.228Z,9.57
2022-11-17T08:47:34.296Z,9.36
2022-11-17T08:50:01.003Z,9.32
2022-11-17T08:52:29.167Z,9.37
2022-11-17T08:54:55.797Z,9.60
2022-11-17T08:57:22.679Z,9.38
2022-11-17T08:59:50.079Z,9.32
2022-11-17T09:02:17.499Z,9.17
2022-11-17T09:04:46.155Z,9.11
2022-11-17T09:07:12.758Z,9.09
2022-11-17T09:09:39.517Z,9.05
2022-11-17T09:12:06.161Z,9.09
2022-11-17T09:14:32.778Z,9.08
2022-11-17T09:16:59.475Z,9.30
2022-11-17T09:19:26.240Z,9.46
2022-11-17T09:21:52.894Z,9.52
2022-11-17T09:24:19.376Z,9.62
2022-11-17T09:26:45.879Z,9.48
2022-11-17T09:29:12.361Z,9.68
2022-11-17T09:31:39.067Z,9.54
2022-11-17T09:34:06.194Z,9.49
2022-11-17T09:36:33.849Z,9.54
2022-11-17T09:39:00.976Z,9.68
2022-11-17T09:41:32.490Z,9.73
2022-11-17T09:44:33.225Z,9.84
2022-11-17T09:47:20.865Z,10.00
2022-11-17T09:50:02.786Z,9.99
2022-11-17T09:52:35.889Z,10.36
2022-11-17T09:55:08.632Z,10.60
2022-11-17T09:57:40.831Z,10.68
2022-11-17T10:00:14.122Z,10.94
2022-11-17T10:02:42.363Z,10.83
2022-11-17T10:05:33.819Z,10.76
2022-11-17T10:08:08.384Z,10.57
2022-11-17T10:10:49.994Z,10.53
2022-11-17T10:13:30.800Z,10.32
2022-11-17T10:16:26.660Z,10.43
2022-11-17T10:18:53.183Z,10.28
2022-11-17T10:21:19.812Z,10.23
2022-11-17T10:23:56.324Z,9.92
2022-11-17T10:26:22.815Z,9.69
2022-11-17T10:29:08.698Z,9.84
2022-11-17T10:31:46.245Z,10.15
2022-11-17T10:34:37.060Z,10.69
2022-11-17T10:37:30.241Z,11.18
2022-11-17T10:40:23.585Z,11.74
2022-11-17T10:45:54.675Z,14.62
2022-11-17T10:48:36.564Z,16.71
2022-11-17T10:51:19.329Z,17.50
2022-11-17T10:54:03.117Z,16.85
2022-11-17T10:56:32.915Z,15.92
2022-11-17T10:59:08.266Z,15.05
2022-11-17T11:01:37.938Z,14.52
2022-11-17T11:04:06.791Z,13.89
2022-11-17T11:06:34.780Z,12.56
2022-11-17T11:09:10.338Z,11.62
2022-11-17T11:11:45.722Z,10.93
2022-11-17T11:14:12.111Z,11.12
2022-11-17T11:16:42.451Z,11.37
2022-11-17T11:19:15.146Z,11.32
2022-11-17T11:21:53.522Z,11.26
2022-11-17T11:24:41.892Z,11.55
2022-11-17T11:27:14.459Z,11.52
2022-11-17T11:30:09.634Z,11.34
2022-11-17T11:33:23.035Z,11.60
2022-11-17T11:36:15.608Z,11.67
2022-11-17T11:39:17.499Z,11.17
2022-11-17T11:42:07.506Z,11.21
2022-11-17T11:44:41.183Z,11.45
2022-11-17T11:47:19.786Z,11.62
2022-11-17T11:49:52.736Z,11.47
2022-11-17T11:52:22.269Z,11.46
2022-11-17T11:54:56.949Z,11.28
2022-11-17T11:57:30.871Z,11.36
2022-11-17T12:00:05.988Z,11.02
2022-11-17T12:03:04.375Z,11.27
2022-11-17T12:05:47.998Z,11.09
2022-11-17T12:08:20.846Z,11.16
2022-11-17T12:11:38.236Z,11.17
2022-11-17T12:14:06.858Z,11.12
2022-11-17T12:16:35.586Z,11.49
2022-11-17T12:19:02.760Z,11.80
2022-11-17T12:21:30.397Z,11.50
2022-11-17T12:24:18.021Z,11.38
2022-11-17T12:26:44.994Z,11.57
2022-11-17T12:29:20.473Z,11.34
2022-11-17T12:31:48.941Z,11.72
2022-11-17T12:34:27.626Z,11.62
2022-11-17T12:37:13.030Z,11.94
2022-11-17T12:39:59.642Z,11.70
2022-11-17T12:42:31.363Z,11.98
2022-11-17T12:45:00.910Z,11.73
2022-11-17T12:47:54.772Z,11.51
2022-11-17T12:50:48.965Z,11.73
2022-11-17T12:53:30.550Z,11.54
2022-11-17T12:56:07.725Z,11.51
2022-11-17T12:58:52.436Z,11.71
2022-11-17T13:01:51.038Z,11.80
2022-11-17T13:04:21.347Z,12.00
2022-11-17T13:07:08.611Z,12.06
2022-11-17T13:09:36.475Z,12.04
2022-11-17T13:12:08.319Z,11.76
2022-11-17T13:14:37.031Z,11.55
2022-11-17T13:17:03.930Z,11.97
2022-11-17T13:19:34.999Z,12.50
2022-11-17T13:22:14.439Z,12.75
2022-11-17T13:24:52.150Z,13.46
2022-11-17T13:27:23.177Z,15.32
2022-11-17T13:29:50.850Z,16.63
2022-11-17T13:32:24.753Z,17.17
2022-11-17T13:34:52.877Z,17.97
2022-11-17T13:37:25.522Z,16.55
2022-11-17T13:40:02.905Z,15.73
2022-11-17T13:42:32.123Z,15.38
2022-11-17T13:45:03.184Z,14.98
2022-11-17T13:47:39.447Z,13.82
2022-11-17T13:50:32.751Z,12.86
2022-11-17T13:53:23.874Z,13.12
2022-11-17T13:55:51.385Z,12.25
2022-11-17T13:58:26.498Z,12.19
2022-11-17T14:00:56.887Z,11.78
2022-11-17T14:03:38.382Z,11.75
2022-11-17T14:06:08.124Z,11.69
2022-11-17T14:08:35.862Z,11.27
2022-11-17T14:11:11.531Z,11.56
2022-11-17T14:13:47.099Z,11.71
2022-11-17T14:16:40.220Z,11.46
2022-11-17T14:19:16.014Z,10.80
2022-11-17T14:22:03.281Z,10.72
2022-11-17T14:24:31.976Z,10.89
2022-11-17T14:26:58.762Z,10.72
2022-11-17T14:29:27.813Z,10.75
2022-11-17T14:31:55.702Z,10.76
2022-11-17T14:34:23.258Z,10.59
2022-11-17T14:36:58.492Z,10.32
2022-11-17T14:39:29.597Z,10.38
2022-11-17T14:41:56.122Z,10.40
2022-11-17T14:44:26.789Z,10.43
2022-11-17T14:46:53.340Z,10.41
2022-11-17T14:49:19.922Z,10.41
2022-11-17T14:51:49.577Z,10.37
2022-11-17T14:54:16.144Z,10.54
2022-11-17T14:56:42.972Z,10.13
2022-11-17T14:59:11.108Z,10.19
2022-11-17T15:01:38.707Z,10.02
2022-11-17T15:04:27.379Z,10.12
2022-11-17T15:06:52.981Z,10.06
2022-11-17T15:09:20.704Z,9.99
2022-11-17T15:11:47.607Z,10.10
2022-11-17T15:14:14.542Z,10.12
2022-11-17T15:16:41.428Z,10.00
2022-11-17T15:19:07.862Z,10.23
2022-11-17T15:21:34.666Z,10.33
2022-11-17T15:24:03.474Z,10.33
2022-11-17T15:26:30.091Z,10.34
2022-11-17T15:28:59.589Z,10.41
2022-11-17T15:31:26.081Z,10.46
2022-11-17T15:33:52.997Z,10.41
2022-11-17T15:36:21.410Z,10.47
2022-11-17T15:38:48.088Z,10.34
2022-11-17T15:41:15.690Z,10.36
2022-11-17T15:43:44.174Z,10.37
2022-11-17T15:46:12.202Z,10.15
2022-11-17T15:48:42.781Z,10.05
2022-11-17T15:51:17.919Z,10.04
2022-11-17T15:53:46.919Z,10.14
2022-11-17T15:56:19.634Z,10.21
2022-11-17T15:58:47.710Z,10.09
2022-11-17T16:01:24.842Z,10.10
2022-11-17T16:03:53.063Z,10.02
2022-11-17T16:06:19.540Z,9.93
2022-11-17T16:08:46.016Z,9.84
2022-11-17T16:11:12.510Z,9.82
2022-11-17T16:13:38.983Z,9.77
2022-11-17T16:16:06.943Z,9.75
2022-11-17T16:18:34.576Z,9.84
2022-11-17T16:21:05.872Z,9.94
2022-11-17T16:23:38.714Z,9.86
2022-11-17T16:26:05.312Z,9.81
2022-11-17T16:28:31.835Z,9.84
2022-11-17T16:30:58.318Z,9.78
2022-11-17T16:33:25.191Z,9.92
2022-11-17T16:35:51.893Z,9.97
2022-11-17T16:38:18.486Z,10.13
2022-11-17T16:40:44.915Z,9.92
2022-11-17T16:43:12.928Z,10.02
2022-11-17T16:45:44.975Z,10.09
2022-11-17T16:48:12.831Z,9.77
2022-11-17T16:50:40.333Z,9.42
2022-11-17T16:53:07.279Z,9.41
2022-11-17T16:55:35.857Z,9.42
2022-11-17T16:58:04.253Z,9.46
2022-11-17T17:00:31.362Z,9.47
2022-11-17T17:02:58.195Z,9.45
2022-11-17T17:05:25.529Z,9.11
2022-11-17T17:07:52.135Z,8.97
2022-11-17T17:10:18.802Z,8.87
2022-11-17T17:12:45.300Z,8.88
2022-11-17T17:15:12.004Z,8.88
2022-11-17T17:17:38.528Z,8.77
2022-11-17T17:20:05.479Z,8.76
2022-11-17T17:22:32.076Z,8.69
2022-11-17T17:24:58.566Z,8.73
2022-11-17T17:27:24.992Z,8.60
2022-11-17T17:29:54.591Z,8.66
2022-11-17T17:32:21.009Z,8.55
2022-11-17T17:34:47.520Z,8.48
2022-11-17T17:37:14.082Z,8.54
2022-11-17T17:39:40.660Z,8.33
2022-11-17T17:42:07.128Z,8.39
2022-11-17T17:44:33.747Z,8.39
2022-11-17T17:47:00.194Z,8.33
2022-11-17T17:49:26.659Z,8.20
2022-11-17T17:51:53.226Z,8.19
2022-11-17T17:54:21.477Z,8.21
2022-11-17T17:56:48.563Z,8.13
2022-11-17T17:59:16.701Z,8.09
2022-11-17T18:01:46.044Z,8.07
2022-11-17T18:04:15.771Z,7.85
2022-11-17T18:06:48.664Z,7.68
2022-11-17T18:09:19.050Z,7.69
2022-11-17T18:11:47.849Z,7.74
2022-11-17T18:14:14.364Z,7.75
2022-11-17T18:16:40.890Z,7.64
2022-11-17T18:19:09.253Z,7.57
2022-11-17T18:21:36.184Z,7.46
2022-11-17T18:24:03.255Z,7.35
2022-11-17T18:26:32.554Z,7.35
2022-11-17T18:29:01.355Z,7.25
2022-11-17T18:31:30.037Z,7.15
2022-11-17T18:34:00.895Z,7.11
2022-11-17T18:36:28.710Z,6.87
2022-11-17T18:38:57.535Z,6.81
2022-11-17T18:41:25.679Z,6.74
2022-11-17T18:43:52.633Z,6.71
2022-11-17T18:46:21.733Z,6.86
2022-11-17T18:48:51.496Z,6.81
2022-11-17T18:51:21.240Z,6.69
2022-11-17T18:53:49.130Z,6.63
2022-11-17T18:56:18.135Z,6.54
2022-11-17T18:58:44.837Z,6.30
2022-11-17T19:01:14.751Z,6.30
2022-11-17T19:03:43.551Z,6.18
2022-11-17T19:06:11.652Z,6.09
2022-11-17T19:08:38.459Z,5.99
2022-11-17T19:11:06.965Z,5.86
2022-11-17T19:13:36.441Z,5.82
2022-11-17T19:16:22.706Z,5.92
2022-11-17T19:18:51.965Z,5.89
2022-11-17T19:21:29.465Z,5.79
2022-11-17T19:23:58.789Z,5.88
2022-11-17T19:26:30.416Z,5.93
2022-11-17T19:28:59.437Z,5.86
2022-11-17T19:31:26.689Z,5.73
2022-11-17T19:33:54.218Z,5.72
2022-11-17T19:36:23.716Z,5.61
2022-11-17T19:38:54.797Z,5.51
2022-11-17T19:41:27.090Z,5.35
2022-11-17T19:44:01.370Z,5.39
2022-11-17T19:46:28.919Z,5.51
2022-11-17T19:48:56.459Z,5.49
2022-11-17T19:51:27.051Z,5.48
2022-11-17T19:54:00.402Z,5.46
2022-11-17T19:56:27.430Z,5.50
2022-11-17T19:58:54.107Z,5.43
2022-11-17T20:01:28.350Z,5.37
2022-11-17T20:03:56.132Z,5.31
2022-11-17T20:06:28.577Z,5.32
2022-11-17T20:08:57.350Z,5.25
2022-11-17T20:11:26.839Z,5.23
2022-11-17T20:13:54.835Z,5.31
2022-11-17T20:16:26.817Z,5.27
2022-11-17T20:18:56.075Z,5.27
2022-11-17T20:21:23.367Z,5.27
2022-11-17T20:23:50.229Z,5.27
2022-11-17T20:26:25.486Z,5.16
2022-11-17T20:28:52.444Z,5.23
2022-11-17T20:31:24.443Z,5.38
2022-11-17T20:33:53.618Z,5.32
2022-11-17T20:36:23.465Z,5.36
2022-11-17T20:38:52.244Z,5.40
2022-11-17T20:41:20.849Z,5.46
2022-11-17T20:43:49.167Z,5.35
2022-11-17T20:46:15.849Z,5.28
2022-11-17T20:48:42.569Z,5.27
2022-11-17T20:51:17.807Z,5.31
2022-11-17T20:53:44.884Z,5.35
2022-11-17T20:56:13.391Z,5.31
2022-11-17T20:58:40.434Z,5.34
2022-11-17T21:01:14.631Z,5.23
2022-11-17T21:03:41.370Z,5.15
2022-11-17T21:06:08.696Z,5.06
2022-11-17T21:08:38.742Z,4.99
2022-11-17T21:11:10.561Z,5.03
2022-11-17T21:13:37.866Z,5.00
2022-11-17T21:16:08.810Z,4.99
2022-11-17T21:18:36.457Z,4.99
2022-11-17T21:21:09.824Z,4.94
2022-11-17T21:23:37.433Z,5.10
2022-11-17T21:26:08.956Z,4.85
2022-11-17T21:28:36.911Z,4.86
2022-11-17T21:31:11.264Z,4.96
2022-11-17T21:33:38.375Z,5.10
2022-11-17T21:36:16.052Z,5.23
2022-11-17T21:38:43.568Z,5.37
2022-11-17T21:41:12.656Z,5.43
2022-11-17T21:43:41.059Z,5.58
2022-11-17T21:46:09.797Z,5.58
2022-11-17T21:48:37.505Z,5.64
2022-11-17T21:51:05.686Z,5.55
2022-11-17T21:53:32.854Z,5.57
2022-11-17T21:56:06.317Z,5.59
2022-11-17T21:58:33.542Z,5.67
2022-11-17T22:01:14.511Z,5.74
2022-11-17T22:03:42.468Z,5.57
2022-11-17T22:06:11.173Z,5.63
2022-11-17T22:08:38.895Z,5.69
2022-11-17T22:11:11.648Z,5.71
2022-11-17T22:13:38.729Z,5.68
2022-11-17T22:16:09.304Z,5.82
2022-11-17T22:18:35.889Z,5.92
2022-11-17T22:21:02.734Z,6.01
2022-11-17T22:23:29.345Z,6.05
2022-11-17T22:25:59.746Z,6.05
2022-11-17T22:28:26.847Z,6.14
2022-11-17T22:30:54.308Z,6.08
2022-11-17T22:33:21.866Z,6.11
2022-11-17T22:35:48.505Z,6.01
2022-11-17T22:38:16.419Z,6.01
2022-11-17T22:40:43.127Z,6.05
2022-11-17T22:43:14.609Z,6.00
2022-11-17T22:45:41.807Z,6.09
2022-11-17T22:48:08.878Z,6.14
2022-11-17T22:50:36.173Z,6.15
2022-11-17T22:53:02.825Z,6.24
2022-11-17T22:55:29.385Z,6.26
2022-11-17T22:57:55.880Z,6.17
2022-11-17T23:00:22.428Z,6.14
2022-11-17T23:22:12.315Z,6.74
2022-11-17T23:24:38.775Z,6.62
2022-11-17T23:27:05.204Z,6.66
2022-11-17T23:29:31.784Z,6.29
2022-11-17T23:31:58.176Z,6.38
2022-11-17T23:34:24.725Z,6.50
2022-11-17T23:36:51.147Z,6.57
2022-11-17T23:39:17.752Z,6.65
2022-11-17T23:41:44.453Z,6.71
2022-11-17T23:44:10.986Z,6.66
2022-11-17T23:46:37.521Z,6.61
2022-11-17T23:49:03.965Z,6.60
2022-11-17T23:51:30.841Z,6.57
2022-11-17T23:53:59.623Z,6.61
2022-11-17T23:56:26.472Z,6.70
2022-11-17T23:58:52.953Z,6.73
